sensor_id;sensor_type;location;lat;lon;timestamp;pressure;altitude;pressure_sealevel;temperature;humidity
25161;BME280;13125;50.224;19.070;2022-07-11T00:01:08;98388.73;;;17.57;70.25
25161;BME280;13125;50.224;19.070;2022-07-11T00:02:43;98386.06;;;17.57;70.30
25161;BME280;13125;50.224;19.070;2022-07-11T00:04:16;98387.17;;;17.56;70.41
25161;BME280;13125;50.224;19.070;2022-07-11T00:05:45;98394.11;;;17.57;70.50
25161;BME280;13125;50.224;19.070;2022-07-11T00:07:20;98397.91;;;17.56;70.61
25161;BME280;13125;50.224;19.070;2022-07-11T00:08:53;98392.86;;;17.54;70.71
25161;BME280;13125;50.224;19.070;2022-07-11T00:10:25;98391.61;;;17.52;70.82
25161;BME280;13125;50.224;19.070;2022-07-11T00:11:59;98391.61;;;17.52;70.82
25161;BME280;13125;50.224;19.070;2022-07-11T00:13:31;98390.05;;;17.51;70.87
25161;BME280;13125;50.224;19.070;2022-07-11T00:15:01;98384.99;;;17.49;70.95
25161;BME280;13125;50.224;19.070;2022-07-11T00:16:34;98388.80;;;17.48;71.03
25161;BME280;13125;50.224;19.070;2022-07-11T00:18:06;98390.68;;;17.48;71.08
25161;BME280;13125;50.224;19.070;2022-07-11T00:19:37;98387.23;;;17.47;71.04
25161;BME280;13125;50.224;19.070;2022-07-11T00:21:13;98388.31;;;17.46;71.09
25161;BME280;13125;50.224;19.070;2022-07-11T00:22:46;98388.18;;;17.43;71.16
25161;BME280;13125;50.224;19.070;2022-07-11T00:24:19;98391.66;;;17.43;71.01
25161;BME280;13125;50.224;19.070;2022-07-11T00:25:48;98392.42;;;17.44;71.18
25161;BME280;13125;50.224;19.070;2022-07-11T00:27:20;98394.66;;;17.42;71.31
25161;BME280;13125;50.224;19.070;2022-07-11T00:28:50;98391.49;;;17.40;71.39
25161;BME280;13125;50.224;19.070;2022-07-11T00:30:20;98391.49;;;17.40;71.36
25161;BME280;13125;50.224;19.070;2022-07-11T00:31:53;98389.89;;;17.39;71.37
25161;BME280;13125;50.224;19.070;2022-07-11T00:33:25;98396.38;;;17.38;71.43
25161;BME280;13125;50.224;19.070;2022-07-11T00:34:55;98385.17;;;17.36;71.58
25161;BME280;13125;50.224;19.070;2022-07-11T00:36:25;98390.08;;;17.34;71.63
25161;BME280;13125;50.224;19.070;2022-07-11T00:38:00;98388.52;;;17.33;71.67
25161;BME280;13125;50.224;19.070;2022-07-11T00:39:32;98391.83;;;17.30;71.76
25161;BME280;13125;50.224;19.070;2022-07-11T00:41:05;98391.03;;;17.29;71.90
25161;BME280;13125;50.224;19.070;2022-07-11T00:42:38;98386.33;;;17.26;72.03
25161;BME280;13125;50.224;19.070;2022-07-11T00:44:12;98387.41;;;17.25;72.11
25161;BME280;13125;50.224;19.070;2022-07-11T00:45:40;98396.25;;;17.26;72.15
25161;BME280;13125;50.224;19.070;2022-07-11T00:47:13;98399.56;;;17.23;72.26
25161;BME280;13125;50.224;19.070;2022-07-11T00:48:46;98394.20;;;17.23;72.36
25161;BME280;13125;50.224;19.070;2022-07-11T00:50:19;98391.07;;;17.21;72.50
25161;BME280;13125;50.224;19.070;2022-07-11T00:51:52;98397.52;;;17.20;72.57
25161;BME280;13125;50.224;19.070;2022-07-11T00:53:22;98391.07;;;17.21;72.66
25161;BME280;13125;50.224;19.070;2022-07-11T00:54:54;98386.16;;;17.23;72.71
25161;BME280;13125;50.224;19.070;2022-07-11T00:56:28;98385.70;;;17.21;72.86
25161;BME280;13125;50.224;19.070;2022-07-11T00:57:58;98390.59;;;17.19;72.94
25161;BME280;13125;50.224;19.070;2022-07-11T00:59:31;98388.57;;;17.16;73.12
25161;BME280;13125;50.224;19.070;2022-07-11T01:01:04;98388.09;;;17.14;73.27
25161;BME280;13125;50.224;19.070;2022-07-11T01:02:34;98391.88;;;17.13;73.38
25161;BME280;13125;50.224;19.070;2022-07-11T01:04:08;98387.28;;;17.13;73.40
25161;BME280;13125;50.224;19.070;2022-07-11T01:05:41;98391.08;;;17.12;73.50
25161;BME280;13125;50.224;19.070;2022-07-11T01:07:14;98385.27;;;17.10;73.65
25161;BME280;13125;50.224;19.070;2022-07-11T01:08:45;98389.83;;;17.10;73.75
25161;BME280;13125;50.224;19.070;2022-07-11T01:10:20;98386.70;;;17.08;73.80
25161;BME280;13125;50.224;19.070;2022-07-11T01:11:53;98389.38;;;17.08;73.83
25161;BME280;13125;50.224;19.070;2022-07-11T01:13:22;98387.77;;;17.07;73.94
25161;BME280;13125;50.224;19.070;2022-07-11T01:14:57;98379.73;;;17.07;73.96
25161;BME280;13125;50.224;19.070;2022-07-11T01:16:30;98383.22;;;17.07;73.93
25161;BME280;13125;50.224;19.070;2022-07-11T01:18:03;98382.77;;;17.05;73.98
25161;BME280;13125;50.224;19.070;2022-07-11T01:19:35;98388.44;;;17.04;74.08
25161;BME280;13125;50.224;19.070;2022-07-11T01:22:40;98386.84;;;17.03;74.22
25161;BME280;13125;50.224;19.070;2022-07-11T01:24:14;98391.44;;;17.02;74.22
25161;BME280;13125;50.224;19.070;2022-07-11T01:25:44;98393.31;;;17.02;74.51
25161;BME280;13125;50.224;19.070;2022-07-11T01:27:15;98385.91;;;16.99;74.62
25161;BME280;13125;50.224;19.070;2022-07-11T01:28:49;98394.28;;;16.97;74.54
25161;BME280;13125;50.224;19.070;2022-07-11T01:30:21;98390.35;;;16.95;74.77
25161;BME280;13125;50.224;19.070;2022-07-11T01:31:56;98390.35;;;16.95;74.89
25161;BME280;13125;50.224;19.070;2022-07-11T01:33:27;98384.19;;;16.94;75.04
25161;BME280;13125;50.224;19.070;2022-07-11T01:34:59;98387.19;;;16.93;75.06
25161;BME280;13125;50.224;19.070;2022-07-11T01:36:33;98387.81;;;16.90;75.25
25161;BME280;13125;50.224;19.070;2022-07-11T01:38:02;98393.84;;;16.87;75.43
25161;BME280;13125;50.224;19.070;2022-07-11T01:39:35;98391.47;;;16.85;75.41
25161;BME280;13125;50.224;19.070;2022-07-11T01:41:07;98388.30;;;16.83;75.59
25161;BME280;13125;50.224;19.070;2022-07-11T01:42:40;98389.27;;;16.79;75.73
25161;BME280;13125;50.224;19.070;2022-07-11T01:44:14;98382.48;;;16.73;75.98
25161;BME280;13125;50.224;19.070;2022-07-11T01:45:51;98387.84;;;16.73;75.92
25161;BME280;13125;50.224;19.070;2022-07-11T01:47:22;98382.48;;;16.73;75.98
25161;BME280;13125;50.224;19.070;2022-07-11T01:48:54;98380.91;;;16.72;76.04
25161;BME280;13125;50.224;19.070;2022-07-11T01:50:29;98380.12;;;16.71;76.04
25161;BME280;13125;50.224;19.070;2022-07-11T01:52:02;98378.86;;;16.69;76.19
25161;BME280;13125;50.224;19.070;2022-07-11T01:53:35;98372.42;;;16.70;76.10
25161;BME280;13125;50.224;19.070;2022-07-11T01:55:08;98377.13;;;16.73;76.12
25161;BME280;13125;50.224;19.070;2022-07-11T01:56:40;98376.67;;;16.71;76.15
25161;BME280;13125;50.224;19.070;2022-07-11T01:58:12;98370.83;;;16.69;76.18
25161;BME280;13125;50.224;19.070;2022-07-11T01:59:41;98362.78;;;16.69;76.18
25161;BME280;13125;50.224;19.070;2022-07-11T02:01:14;98371.63;;;16.69;76.17
25161;BME280;13125;50.224;19.070;2022-07-11T02:02:43;98371.63;;;16.69;76.20
25161;BME280;13125;50.224;19.070;2022-07-11T02:04:19;98371.77;;;16.73;76.20
25161;BME280;13125;50.224;19.070;2022-07-11T02:05:49;98370.20;;;16.72;76.24
25161;BME280;13125;50.224;19.070;2022-07-11T02:07:19;98371.77;;;16.73;76.20
25161;BME280;13125;50.224;19.070;2022-07-11T02:08:49;98368.14;;;16.69;76.51
25161;BME280;13125;50.224;19.070;2022-07-11T02:10:19;98369.25;;;16.68;76.37
25161;BME280;13125;50.224;19.070;2022-07-11T02:11:51;98361.22;;;16.68;76.36
25161;BME280;13125;50.224;19.070;2022-07-11T02:13:22;98367.69;;;16.67;76.45
25161;BME280;13125;50.224;19.070;2022-07-11T02:14:56;98367.20;;;16.65;76.74
25161;BME280;13125;50.224;19.070;2022-07-11T02:16:29;98365.63;;;16.64;76.73
25161;BME280;13125;50.224;19.070;2022-07-11T02:18:02;98366.75;;;16.63;76.99
25161;BME280;13125;50.224;19.070;2022-07-11T02:19:36;98371.96;;;16.59;77.30
25161;BME280;13125;50.224;19.070;2022-07-11T02:21:09;98360.45;;;16.59;77.23
25161;BME280;13125;50.224;19.070;2022-07-11T02:22:44;98366.60;;;16.59;77.24
25161;BME280;13125;50.224;19.070;2022-07-11T02:24:14;98372.27;;;16.58;77.62
25161;BME280;13125;50.224;19.070;2022-07-11T02:25:50;98372.73;;;16.60;77.38
25161;BME280;13125;50.224;19.070;2022-07-11T02:27:25;98370.53;;;16.62;77.41
25161;BME280;13125;50.224;19.070;2022-07-11T02:29:01;98373.22;;;16.62;77.52
25161;BME280;13125;50.224;19.070;2022-07-11T02:30:30;98365.18;;;16.62;77.58
25161;BME280;13125;50.224;19.070;2022-07-11T02:31:59;98373.67;;;16.64;77.58
25161;BME280;13125;50.224;19.070;2022-07-11T02:33:32;98374.78;;;16.63;77.66
25161;BME280;13125;50.224;19.070;2022-07-11T02:35:05;98373.67;;;16.64;77.69
25161;BME280;13125;50.224;19.070;2022-07-11T02:36:34;98375.89;;;16.62;77.69
25161;BME280;13125;50.224;19.070;2022-07-11T02:38:04;98370.53;;;16.62;77.62
25161;BME280;13125;50.224;19.070;2022-07-11T02:39:34;98375.23;;;16.65;77.59
25161;BME280;13125;50.224;19.070;2022-07-11T02:41:09;98366.75;;;16.63;77.64
25161;BME280;13125;50.224;19.070;2022-07-11T02:42:44;98374.47;;;16.64;77.65
25161;BME280;13125;50.224;19.070;2022-07-11T02:44:19;98373.67;;;16.64;77.55
25161;BME280;13125;50.224;19.070;2022-07-11T02:45:51;98374.16;;;16.66;77.52
25161;BME280;13125;50.224;19.070;2022-07-11T02:47:23;98371.79;;;16.64;77.65
25161;BME280;13125;50.224;19.070;2022-07-11T02:48:54;98375.58;;;16.63;77.57
25161;BME280;13125;50.224;19.070;2022-07-11T02:50:29;98378.57;;;16.62;77.49
25161;BME280;13125;50.224;19.070;2022-07-11T02:52:02;98378.89;;;16.60;77.37
25161;BME280;13125;50.224;19.070;2022-07-11T02:53:32;98374.64;;;16.59;77.43
25161;BME280;13125;50.224;19.070;2022-07-11T02:55:02;98383.30;;;16.56;77.34
25161;BME280;13125;50.224;19.070;2022-07-11T02:56:34;98382.50;;;16.56;77.29
25161;BME280;13125;50.224;19.070;2022-07-11T02:58:04;98380.93;;;16.55;77.37
25161;BME280;13125;50.224;19.070;2022-07-11T02:59:37;98389.13;;;16.50;77.61
25161;BME280;13125;50.224;19.070;2022-07-11T03:01:06;98385.02;;;16.44;78.24
25161;BME280;13125;50.224;19.070;2022-07-11T03:02:39;98387.23;;;16.42;78.49
25161;BME280;13125;50.224;19.070;2022-07-11T03:04:14;98381.84;;;16.33;79.08
25161;BME280;13125;50.224;19.070;2022-07-11T03:05:47;98391.47;;;16.34;79.00
25161;BME280;13125;50.224;19.070;2022-07-11T03:07:20;98384.36;;;16.30;79.53
25161;BME280;13125;50.224;19.070;2022-07-11T03:08:50;98387.05;;;16.30;79.37
25161;BME280;13125;50.224;19.070;2022-07-11T03:10:24;98387.84;;;16.30;79.54
25161;BME280;13125;50.224;19.070;2022-07-11T03:11:57;98388.46;;;16.27;79.79
25161;BME280;13125;50.224;19.070;2022-07-11T03:13:29;98393.02;;;16.27;79.65
25161;BME280;13125;50.224;19.070;2022-07-11T03:15:01;98394.92;;;16.26;80.06
25161;BME280;13125;50.224;19.070;2022-07-11T03:16:34;98389.88;;;16.25;80.31
25161;BME280;13125;50.224;19.070;2022-07-11T03:18:04;98387.20;;;16.25;80.33
25161;BME280;13125;50.224;19.070;2022-07-11T03:19:37;98395.69;;;16.27;80.37
25161;BME280;13125;50.224;19.070;2022-07-11T03:21:07;98391.45;;;16.26;80.34
25161;BME280;13125;50.224;19.070;2022-07-11T03:22:41;98386.58;;;16.28;80.41
25161;BME280;13125;50.224;19.070;2022-07-11T03:24:14;98389.57;;;16.26;80.56
25161;BME280;13125;50.224;19.070;2022-07-11T03:25:45;98395.39;;;16.28;80.48
25161;BME280;13125;50.224;19.070;2022-07-11T03:27:20;98386.41;;;16.24;80.76
25161;BME280;13125;50.224;19.070;2022-07-11T03:28:52;98390.34;;;16.27;80.66
25161;BME280;13125;50.224;19.070;2022-07-11T03:30:23;98390.19;;;16.23;80.74
25161;BME280;13125;50.224;19.070;2022-07-11T03:31:52;98390.98;;;16.24;80.86
25161;BME280;13125;50.224;19.070;2022-07-11T03:33:25;98396.80;;;16.26;80.88
25161;BME280;13125;50.224;19.070;2022-07-11T03:34:58;98390.34;;;16.27;80.77
25161;BME280;13125;50.224;19.070;2022-07-11T03:36:28;98387.20;;;16.25;80.79
25161;BME280;13125;50.224;19.070;2022-07-11T03:38:00;98390.83;;;16.29;80.71
25161;BME280;13125;50.224;19.070;2022-07-11T03:39:35;98396.64;;;16.31;80.72
25161;BME280;13125;50.224;19.070;2022-07-11T03:41:08;98391.59;;;16.29;80.70
25161;BME280;13125;50.224;19.070;2022-07-11T03:42:43;98394.62;;;16.28;80.77
25161;BME280;13125;50.224;19.070;2022-07-11T03:44:13;98397.42;;;16.23;81.18
25161;BME280;13125;50.224;19.070;2022-07-11T03:45:46;98390.65;;;16.25;80.95
25161;BME280;13125;50.224;19.070;2022-07-11T03:47:20;98398.53;;;16.22;81.44
25161;BME280;13125;50.224;19.070;2022-07-11T03:48:51;98394.45;;;16.16;81.67
25161;BME280;13125;50.224;19.070;2022-07-11T03:50:24;98404.66;;;16.14;81.62
25161;BME280;13125;50.224;19.070;2022-07-11T03:51:54;98401.03;;;16.10;81.83
25161;BME280;13125;50.224;19.070;2022-07-11T03:53:27;98401.83;;;16.10;81.83
25161;BME280;13125;50.224;19.070;2022-07-11T03:54:56;98403.25;;;16.08;81.77
25161;BME280;13125;50.224;19.070;2022-07-11T03:56:30;98401.67;;;16.07;82.14
25161;BME280;13125;50.224;19.070;2022-07-11T03:58:03;98407.80;;;16.07;81.95
25161;BME280;13125;50.224;19.070;2022-07-11T03:59:36;98408.59;;;16.08;82.05
25161;BME280;13125;50.224;19.070;2022-07-11T04:01:13;98407.80;;;16.07;82.08
25161;BME280;13125;50.224;19.070;2022-07-11T04:02:47;98403.86;;;16.05;82.33
25161;BME280;13125;50.224;19.070;2022-07-11T04:04:18;98405.12;;;16.07;82.33
25161;BME280;13125;50.224;19.070;2022-07-11T04:05:51;98406.23;;;16.06;82.34
25161;BME280;13125;50.224;19.070;2022-07-11T04:07:21;98406.54;;;16.05;82.37
25161;BME280;13125;50.224;19.070;2022-07-11T04:08:52;98407.34;;;16.05;82.17
25161;BME280;13125;50.224;19.070;2022-07-11T04:10:24;98406.23;;;16.06;82.30
25161;BME280;13125;50.224;19.070;2022-07-11T04:11:57;98406.23;;;16.06;82.39
25161;BME280;13125;50.224;19.070;2022-07-11T04:13:30;98403.25;;;16.08;82.31
25161;BME280;13125;50.224;19.070;2022-07-11T04:15:03;98404.81;;;16.09;82.27
25161;BME280;13125;50.224;19.070;2022-07-11T04:16:32;98409.37;;;16.08;82.41
25161;BME280;13125;50.224;19.070;2022-07-11T04:18:07;98406.38;;;16.10;82.27
25161;BME280;13125;50.224;19.070;2022-07-11T04:19:38;98404.35;;;16.07;82.38
25161;BME280;13125;50.224;19.070;2022-07-11T04:21:15;98400.39;;;16.04;82.44
25161;BME280;13125;50.224;19.070;2022-07-11T04:22:47;98402.30;;;16.04;82.52
25161;BME280;13125;50.224;19.070;2022-07-11T04:24:17;98397.25;;;16.02;82.61
25161;BME280;13125;50.224;19.070;2022-07-11T04:25:52;98401.80;;;16.02;82.59
25161;BME280;13125;50.224;19.070;2022-07-11T04:27:22;98404.97;;;16.04;82.47
25161;BME280;13125;50.224;19.070;2022-07-11T04:28:55;98398.97;;;15.98;82.59
25161;BME280;13125;50.224;19.070;2022-07-11T04:30:28;98404.32;;;15.98;82.66
25161;BME280;13125;50.224;19.070;2022-07-11T04:32:03;98397.55;;;16.01;82.46
25161;BME280;13125;50.224;19.070;2022-07-11T04:33:35;98398.17;;;15.98;82.67
25161;BME280;13125;50.224;19.070;2022-07-11T04:35:08;98399.28;;;15.97;82.83
25161;BME280;13125;50.224;19.070;2022-07-11T04:36:44;98400.84;;;15.98;82.61
25161;BME280;13125;50.224;19.070;2022-07-11T04:38:15;98409.06;;;16.01;82.61
25161;BME280;13125;50.224;19.070;2022-07-11T04:39:50;98402.59;;;16.02;82.51
25161;BME280;13125;50.224;19.070;2022-07-11T04:41:21;98404.17;;;16.03;82.58
25161;BME280;13125;50.224;19.070;2022-07-11T04:42:51;98402.14;;;16.00;82.52
25161;BME280;13125;50.224;19.070;2022-07-11T04:44:23;98402.30;;;16.04;82.56
25161;BME280;13125;50.224;19.070;2022-07-11T04:45:55;98406.08;;;16.03;82.49
25161;BME280;13125;50.224;19.070;2022-07-11T04:47:26;98404.97;;;16.04;82.37
25161;BME280;13125;50.224;19.070;2022-07-11T04:49:00;98408.11;;;16.06;82.36
25161;BME280;13125;50.224;19.070;2022-07-11T04:50:33;98408.75;;;16.03;82.27
25161;BME280;13125;50.224;19.070;2022-07-11T04:52:02;98409.83;;;16.02;82.46
25161;BME280;13125;50.224;19.070;2022-07-11T04:53:38;98412.05;;;16.00;82.47
25161;BME280;13125;50.224;19.070;2022-07-11T04:55:10;98412.84;;;16.00;82.45
25161;BME280;13125;50.224;19.070;2022-07-11T04:56:41;98412.66;;;15.97;82.51
25161;BME280;13125;50.224;19.070;2022-07-11T04:58:13;98412.05;;;16.00;82.37
25161;BME280;13125;50.224;19.070;2022-07-11T04:59:46;98417.86;;;16.02;82.20
25161;BME280;13125;50.224;19.070;2022-07-11T05:01:19;98410.33;;;16.04;82.28
25161;BME280;13125;50.224;19.070;2022-07-11T05:02:52;98419.12;;;16.04;82.19
25161;BME280;13125;50.224;19.070;2022-07-11T05:04:30;98422.14;;;16.03;82.26
25161;BME280;13125;50.224;19.070;2022-07-11T05:06:07;98419.12;;;16.04;82.07
25161;BME280;13125;50.224;19.070;2022-07-11T05:07:39;98420.41;;;16.07;82.06
25161;BME280;13125;50.224;19.070;2022-07-11T05:09:12;98420.72;;;16.05;82.05
25161;BME280;13125;50.224;19.070;2022-07-11T05:10:45;98424.17;;;16.06;82.01
25161;BME280;13125;50.224;19.070;2022-07-11T05:12:20;98425.89;;;16.02;82.00
25161;BME280;13125;50.224;19.070;2022-07-11T05:13:51;98431.09;;;15.98;82.06
25161;BME280;13125;50.224;19.070;2022-07-11T05:15:26;98419.77;;;16.01;81.82
25161;BME280;13125;50.224;19.070;2022-07-11T05:17:01;98426.38;;;16.04;81.60
25161;BME280;13125;50.224;19.070;2022-07-11T05:18:31;98423.09;;;16.07;81.66
25161;BME280;13125;50.224;19.070;2022-07-11T05:20:04;98426.84;;;16.06;81.57
25161;BME280;13125;50.224;19.070;2022-07-11T05:21:33;98427.80;;;16.10;81.60
25161;BME280;13125;50.224;19.070;2022-07-11T05:23:06;98429.40;;;16.11;81.42
25161;BME280;13125;50.224;19.070;2022-07-11T05:24:36;98422.45;;;16.10;81.45
25161;BME280;13125;50.224;19.070;2022-07-11T05:26:08;98425.27;;;16.05;81.44
25161;BME280;13125;50.224;19.070;2022-07-11T05:27:44;98433.80;;;16.07;81.36
25161;BME280;13125;50.224;19.070;2022-07-11T05:29:18;98432.05;;;16.02;81.52
25161;BME280;13125;50.224;19.070;2022-07-11T05:30:54;98431.43;;;16.05;81.48
25161;BME280;13125;50.224;19.070;2022-07-11T05:32:24;98427.64;;;16.06;81.38
25161;BME280;13125;50.224;19.070;2022-07-11T05:33:57;98431.58;;;16.09;81.39
25161;BME280;13125;50.224;19.070;2022-07-11T05:35:31;98427.80;;;16.10;81.24
25161;BME280;13125;50.224;19.070;2022-07-11T05:37:04;98433.34;;;16.13;81.16
25161;BME280;13125;50.224;19.070;2022-07-11T05:38:33;98433.64;;;16.12;81.16
25161;BME280;13125;50.224;19.070;2022-07-11T05:40:09;98433.00;;;16.15;81.14
25161;BME280;13125;50.224;19.070;2022-07-11T05:41:40;98425.92;;;16.19;80.99
25161;BME280;13125;50.224;19.070;2022-07-11T05:43:10;98436.17;;;16.17;80.75
25161;BME280;13125;50.224;19.070;2022-07-11T05:44:43;98432.56;;;16.21;80.64
25161;BME280;13125;50.224;19.070;2022-07-11T05:46:13;98438.38;;;16.23;80.64
25161;BME280;13125;50.224;19.070;2022-07-11T05:47:45;98431.61;;;16.26;80.50
25161;BME280;13125;50.224;19.070;2022-07-11T05:49:18;98432.41;;;16.26;80.69
25161;BME280;13125;50.224;19.070;2022-07-11T05:50:53;98435.55;;;16.28;80.62
25161;BME280;13125;50.224;19.070;2022-07-11T05:52:26;98437.14;;;16.38;80.35
25161;BME280;13125;50.224;19.070;2022-07-11T05:53:58;98443.48;;;16.42;80.09
25161;BME280;13125;50.224;19.070;2022-07-11T05:55:32;98439.53;;;16.48;80.07
25161;BME280;13125;50.224;19.070;2022-07-11T05:57:01;98434.98;;;16.48;79.97
25161;BME280;13125;50.224;19.070;2022-07-11T05:58:40;98443.02;;;16.48;80.01
25161;BME280;13125;50.224;19.070;2022-07-11T06:00:11;98434.36;;;16.51;79.87
25161;BME280;13125;50.224;19.070;2022-07-11T06:01:42;98441.14;;;16.49;79.87
25161;BME280;13125;50.224;19.070;2022-07-11T06:03:14;98431.03;;;16.54;79.92
25161;BME280;13125;50.224;19.070;2022-07-11T06:04:46;98431.67;;;16.60;79.79
25161;BME280;13125;50.224;19.070;2022-07-11T06:06:19;98438.59;;;16.61;79.35
25161;BME280;13125;50.224;19.070;2022-07-11T06:07:48;98432.76;;;16.67;79.37
25161;BME280;13125;50.224;19.070;2022-07-11T06:09:21;98436.25;;;16.76;79.31
25161;BME280;13125;50.224;19.070;2022-07-11T06:10:53;98438.13;;;16.76;78.89
25161;BME280;13125;50.224;19.070;2022-07-11T06:12:26;98436.39;;;16.80;78.76
25161;BME280;13125;50.224;19.070;2022-07-11T06:13:58;98447.58;;;16.82;78.66
25161;BME280;13125;50.224;19.070;2022-07-11T06:15:28;98442.87;;;16.79;78.60
25161;BME280;13125;50.224;19.070;2022-07-11T06:17:06;98442.87;;;16.79;78.59
25161;BME280;13125;50.224;19.070;2022-07-11T06:18:39;98443.33;;;16.81;78.42
25161;BME280;13125;50.224;19.070;2022-07-11T06:20:11;98443.64;;;16.88;78.40
25161;BME280;13125;50.224;19.070;2022-07-11T06:21:44;98436.69;;;16.95;78.05
25161;BME280;13125;50.224;19.070;2022-07-11T06:23:17;98441.11;;;17.00;77.55
25161;BME280;13125;50.224;19.070;2022-07-11T06:24:50;98434.47;;;17.06;77.81
25161;BME280;13125;50.224;19.070;2022-07-11T06:26:25;98432.55;;;17.15;77.54
25161;BME280;13125;50.224;19.070;2022-07-11T06:27:55;98438.23;;;17.22;77.39
25161;BME280;13125;50.224;19.070;2022-07-11T06:29:26;98431.58;;;17.28;77.30
25161;BME280;13125;50.224;19.070;2022-07-11T06:30:57;98430.31;;;17.34;76.65
25161;BME280;13125;50.224;19.070;2022-07-11T06:32:32;98427.30;;;17.44;76.83
25161;BME280;13125;50.224;19.070;2022-07-11T06:34:01;98424.92;;;17.51;76.22
25161;BME280;13125;50.224;19.070;2022-07-11T06:35:34;98426.78;;;17.59;75.78
25161;BME280;13125;50.224;19.070;2022-07-11T06:37:04;98429.60;;;17.62;74.89
25161;BME280;13125;50.224;19.070;2022-07-11T06:38:37;98434.95;;;17.71;74.36
25161;BME280;13125;50.224;19.070;2022-07-11T06:40:12;98429.08;;;17.78;73.93
25161;BME280;13125;50.224;19.070;2022-07-11T06:41:47;98425.41;;;17.82;73.24
25161;BME280;13125;50.224;19.070;2022-07-11T06:43:20;98429.31;;;17.93;72.57
25161;BME280;13125;50.224;19.070;2022-07-11T06:44:53;98427.84;;;18.04;72.04
25161;BME280;13125;50.224;19.070;2022-07-11T06:46:23;98437.27;;;18.10;71.38
25161;BME280;13125;50.224;19.070;2022-07-11T06:47:58;98432.50;;;18.16;71.01
25161;BME280;13125;50.224;19.070;2022-07-11T06:49:32;98437.80;;;18.24;70.88
25161;BME280;13125;50.224;19.070;2022-07-11T06:51:05;98443.45;;;18.31;70.58
25161;BME280;13125;50.224;19.070;2022-07-11T06:52:37;98438.72;;;18.37;70.23
25161;BME280;13125;50.224;19.070;2022-07-11T06:54:09;98436.63;;;18.42;69.41
25161;BME280;13125;50.224;19.070;2022-07-11T06:55:40;98435.75;;;18.50;69.33
25161;BME280;13125;50.224;19.070;2022-07-11T06:57:09;98431.89;;;18.60;68.76
25161;BME280;13125;50.224;19.070;2022-07-11T06:58:42;98429.92;;;18.69;68.84
25161;BME280;13125;50.224;19.070;2022-07-11T07:00:20;98428.14;;;18.73;68.46
25161;BME280;13125;50.224;19.070;2022-07-11T07:01:53;98436.15;;;18.81;67.60
25161;BME280;13125;50.224;19.070;2022-07-11T07:03:25;98435.29;;;18.89;67.33
25161;BME280;13125;50.224;19.070;2022-07-11T07:04:54;98443.59;;;18.96;66.72
25161;BME280;13125;50.224;19.070;2022-07-11T07:06:29;98430.41;;;19.03;66.17
25161;BME280;13125;50.224;19.070;2022-07-11T07:08:01;98432.67;;;19.13;65.78
25161;BME280;13125;50.224;19.070;2022-07-11T07:09:36;98422.70;;;19.14;65.04
25161;BME280;13125;50.224;19.070;2022-07-11T07:11:09;98431.24;;;19.16;64.51
25161;BME280;13125;50.224;19.070;2022-07-11T07:12:45;98428.48;;;19.24;64.38
25161;BME280;13125;50.224;19.070;2022-07-11T07:14:17;98434.55;;;19.33;64.63
25161;BME280;13125;50.224;19.070;2022-07-11T07:15:47;98441.42;;;19.43;64.33
25161;BME280;13125;50.224;19.070;2022-07-11T07:17:20;98433.27;;;19.51;63.45
25161;BME280;13125;50.224;19.070;2022-07-11T07:18:53;98410.27;;;19.54;61.33
25161;BME280;13125;50.224;19.070;2022-07-11T07:20:25;98431.01;;;19.53;60.73
25161;BME280;13125;50.224;19.070;2022-07-11T07:21:58;98438.30;;;19.65;61.31
25161;BME280;13125;50.224;19.070;2022-07-11T07:23:30;98434.16;;;19.79;60.94
25161;BME280;13125;50.224;19.070;2022-07-11T07:25:00;98438.99;;;19.86;60.38
25161;BME280;13125;50.224;19.070;2022-07-11T07:26:30;98435.53;;;19.85;60.47
25161;BME280;13125;50.224;19.070;2022-07-11T07:28:02;98433.61;;;19.86;58.67
25161;BME280;13125;50.224;19.070;2022-07-11T07:29:40;98430.58;;;19.87;58.40
25161;BME280;13125;50.224;19.070;2022-07-11T07:31:09;98432.48;;;19.87;57.85
25161;BME280;13125;50.224;19.070;2022-07-11T07:32:41;98432.81;;;19.97;57.68
25161;BME280;13125;50.224;19.070;2022-07-11T07:34:17;98431.05;;;20.13;56.31
25161;BME280;13125;50.224;19.070;2022-07-11T07:35:55;98431.91;;;20.05;56.66
25161;BME280;13125;50.224;19.070;2022-07-11T07:37:27;98430.69;;;20.03;57.38
25161;BME280;13125;50.224;19.070;2022-07-11T07:38:59;98428.69;;;20.00;57.58
25161;BME280;13125;50.224;19.070;2022-07-11T07:40:34;98429.45;;;20.00;57.61
25161;BME280;13125;50.224;19.070;2022-07-11T07:42:07;98432.81;;;19.97;58.04
25161;BME280;13125;50.224;19.070;2022-07-11T07:43:36;98433.84;;;19.93;58.17
25161;BME280;13125;50.224;19.070;2022-07-11T07:45:10;98420.04;;;19.82;57.97
25161;BME280;13125;50.224;19.070;2022-07-11T07:46:42;98435.08;;;19.95;57.52
25161;BME280;13125;50.224;19.070;2022-07-11T07:48:12;98439.33;;;19.96;56.87
25161;BME280;13125;50.224;19.070;2022-07-11T07:49:44;98428.22;;;19.98;56.28
25161;BME280;13125;50.224;19.070;2022-07-11T07:51:17;98422.94;;;20.01;55.76
25161;BME280;13125;50.224;19.070;2022-07-11T07:52:54;98432.95;;;20.01;54.86
25161;BME280;13125;50.224;19.070;2022-07-11T07:54:29;98426.09;;;19.91;54.69
25161;BME280;13125;50.224;19.070;2022-07-11T07:56:01;98427.55;;;19.77;54.50
25161;BME280;13125;50.224;19.070;2022-07-11T07:57:34;98430.23;;;19.65;54.48
25161;BME280;13125;50.224;19.070;2022-07-11T07:59:09;98424.06;;;19.52;54.89
25161;BME280;13125;50.224;19.070;2022-07-11T08:00:44;98418.54;;;19.49;55.23
25161;BME280;13125;50.224;19.070;2022-07-11T08:02:22;98427.53;;;19.41;55.40
25161;BME280;13125;50.224;19.070;2022-07-11T08:03:54;98439.82;;;19.30;55.63
25161;BME280;13125;50.224;19.070;2022-07-11T08:05:27;98416.45;;;19.22;55.66